Time;durP1;ratioP1;P1;durP2;ratioP2;P2;SDS_P1;SDS_P2;PMS_P1;PMS_P2;Temp;Humidity;BMP_temperature;BMP_pressure;BME280_temperature;BME280_humidity;BME280_pressure;Samples;Min_cycle;Max_cycle;Signal;HPM_P1;HPM_P2
2022/11/02 00:00:14;;;;;;;14.65;7.35;;;;;;;10.06;100.00;101159.56;5030845;28;20029;-67
2022/11/02 00:02:40;;;;;;;18.10;9.88;;;;;;;10.07;100.00;101151.38;5030953;28;20030;-66
2022/11/02 00:05:10;;;;;;;19.20;8.48;;;;;;;10.08;100.00;101150.47;5030573;28;20120;-65
2022/11/02 00:07:35;;;;;;;18.27;7.90;;;;;;;10.11;100.00;101147.53;5031416;28;20037;-67
2022/11/02 00:10:01;;;;;;;18.50;8.05;;;;;;;10.13;100.00;101139.38;5037302;28;20033;-66
2022/11/02 00:12:26;;;;;;;17.20;7.32;;;;;;;10.12;100.00;101134.97;5038534;28;20037;-67
2022/11/02 00:14:52;;;;;;;17.73;8.10;;;;;;;10.17;100.00;101130.09;5038378;28;20120;-66
2022/11/02 00:17:17;;;;;;;14.73;7.40;;;;;;;10.17;100.00;101135.47;5037003;28;20044;-67
2022/11/02 00:19:43;;;;;;;14.13;7.57;;;;;;;10.17;100.00;101135.47;5039108;28;20034;-67
2022/11/02 00:22:08;;;;;;;13.18;6.97;;;;;;;10.20;100.00;101129.88;5039089;28;20065;-67
2022/11/02 00:24:34;;;;;;;20.05;7.80;;;;;;;10.20;100.00;101128.03;5038368;28;20037;-67
2022/11/02 00:27:00;;;;;;;13.85;6.70;;;;;;;10.20;100.00;101119.13;5037078;28;20029;-67
2022/11/02 00:29:26;;;;;;;13.90;6.75;;;;;;;10.24;100.00;101115.28;5037126;28;20369;-68
2022/11/02 00:31:52;;;;;;;13.60;6.53;;;;;;;10.24;100.00;101126.03;5038330;28;20436;-66
2022/11/02 00:34:18;;;;;;;12.90;6.90;;;;;;;10.25;100.00;101125.09;5037161;28;20033;-66
2022/11/02 00:36:43;;;;;;;10.05;5.25;;;;;;;10.27;100.00;101115.06;5038537;28;20032;-66
2022/11/02 00:39:09;;;;;;;11.75;5.28;;;;;;;10.27;100.00;101112.38;5038060;28;20398;-65
2022/11/02 00:41:35;;;;;;;12.48;7.03;;;;;;;10.28;100.00;101119.47;5038470;28;20060;-66
2022/11/02 00:44:00;;;;;;;15.23;6.72;;;;;;;10.28;100.00;101121.31;5037347;28;20034;-66
2022/11/02 00:46:26;;;;;;;14.27;6.70;;;;;;;10.29;100.00;101118.50;5038242;28;20059;-66
2022/11/02 00:48:51;;;;;;;12.18;5.78;;;;;;;10.29;100.00;101114.97;5038257;28;20048;-66
2022/11/02 00:51:17;;;;;;;10.82;6.43;;;;;;;10.32;100.00;101122.78;5038267;28;20127;-66
2022/11/02 00:53:42;;;;;;;10.48;4.97;;;;;;;10.34;100.00;101115.47;5038236;28;20037;-67
2022/11/02 00:56:08;;;;;;;9.50;5.20;;;;;;;10.38;100.00;101122.34;5036770;28;20128;-69
2022/11/02 00:58:33;;;;;;;9.75;5.65;;;;;;;10.38;100.00;101123.19;5036801;28;20033;-66
2022/11/02 01:01:04;;;;;;;10.52;6.00;;;;;;;10.37;100.00;101126.84;5036808;28;20485;-67
2022/11/02 01:03:29;;;;;;;10.00;5.57;;;;;;;10.39;100.00;101130.28;5038194;28;20033;-67
2022/11/02 01:05:55;;;;;;;11.93;5.65;;;;;;;10.43;100.00;101126.41;5036762;28;20040;-67
2022/11/02 01:08:20;;;;;;;10.43;5.53;;;;;;;10.41;100.00;101120.31;5038395;28;20180;-66
2022/11/02 01:10:46;;;;;;;7.05;4.63;;;;;;;10.42;100.00;101108.56;5038137;28;20029;-65
2022/11/02 01:13:11;;;;;;;10.50;5.68;;;;;;;10.45;100.00;101124.47;5038531;28;20026;-67
2022/11/02 01:15:37;;;;;;;8.13;4.60;;;;;;;10.47;100.00;101114.47;5038083;28;20033;-67
2022/11/02 01:18:03;;;;;;;8.88;5.07;;;;;;;10.47;100.00;101117.16;5037002;28;20033;-66
2022/11/02 01:20:28;;;;;;;9.10;5.25;;;;;;;10.46;100.00;101115.44;5035255;28;20429;-67
2022/11/02 01:22:54;;;;;;;10.57;5.30;;;;;;;10.48;100.00;101116.19;5034995;28;20036;-67
2022/11/02 01:25:19;;;;;;;10.70;5.82;;;;;;;10.48;100.00;101118.88;5033344;28;20029;-66
2022/11/02 01:27:45;;;;;;;8.90;5.50;;;;;;;10.48;100.00;101116.19;5033710;28;20037;-66
2022/11/02 01:30:11;;;;;;;11.55;5.40;;;;;;;10.48;100.00;101113.50;5033616;28;20032;-66
2022/11/02 01:32:36;;;;;;;9.02;6.13;;;;;;;10.51;100.00;101121.31;5034513;28;20033;-67
2022/11/02 01:35:02;;;;;;;8.38;5.35;;;;;;;10.51;100.00;101110.56;5033184;28;20061;-67
2022/11/02 01:37:28;;;;;;;9.20;5.60;;;;;;;10.50;100.00;101108.84;5034761;28;20541;-66
2022/11/02 01:39:53;;;;;;;12.40;6.25;;;;;;;10.56;100.00;101110.22;5034357;28;20096;-68
2022/11/02 01:42:22;;;;;;;9.85;5.18;;;;;;;10.55;100.00;101114.75;5033449;28;20030;-66
2022/11/02 01:44:47;;;;;;;11.63;6.72;;;;;;;10.57;100.00;101116.44;5034715;28;20461;-67
2022/11/02 01:47:17;;;;;;;10.68;6.55;;;;;;;10.57;100.00;101119.13;5033095;28;20116;-67
2022/11/02 01:49:46;;;;;;;13.45;6.60;;;;;;;10.55;100.00;101122.81;5033371;28;20129;-67
2022/11/02 01:52:18;;;;;;;12.85;6.85;;;;;;;10.59;100.00;101117.22;5034453;28;20712;-66
2022/11/02 01:54:52;;;;;;;10.05;5.85;;;;;;;10.59;100.00;101117.22;5032964;28;20525;-67
2022/11/02 01:57:20;;;;;;;13.65;7.95;;;;;;;10.58;100.00;101112.78;5034450;28;20040;-68
2022/11/02 02:00:11;;;;;;;10.60;6.50;;;;;;;10.59;100.00;101114.53;5033056;28;20056;-67
2022/11/02 02:02:59;;;;;;;16.55;6.93;;;;;;;10.61;100.00;101101.81;5033206;28;20058;-67
2022/11/02 02:05:25;;;;;;;15.82;7.65;;;;;;;10.61;100.00;101102.69;5017312;28;20030;-66
2022/11/02 02:07:53;;;;;;;13.77;7.05;;;;;;;10.64;100.00;101112.34;5034346;28;20029;-67
2022/11/02 02:10:20;;;;;;;17.20;7.45;;;;;;;10.64;100.00;101106.97;5032892;28;20049;-66
2022/11/02 02:12:46;;;;;;;16.70;8.50;;;;;;;10.66;100.00;101110.41;5032712;28;20489;-68
2022/11/02 02:15:12;;;;;;;20.83;9.25;;;;;;;10.64;100.00;101107.84;5033649;28;20394;-67
2022/11/02 02:17:47;;;;;;;19.77;9.25;;;;;;;10.66;100.00;101095.13;5033725;28;20059;-66
2022/11/02 02:20:40;;;;;;;17.40;8.38;;;;;;;10.69;100.00;101083.28;5032607;28;20036;-66
2022/11/02 02:23:30;;;;;;;15.57;8.55;;;;;;;10.71;100.00;101092.09;5033502;28;20171;-66
2022/11/02 02:26:04;;;;;;;22.00;9.85;;;;;;;10.69;100.00;101096.72;5033404;28;20037;-67
2022/11/02 02:28:36;;;;;;;17.27;8.63;;;;;;;10.71;100.00;101094.78;5032451;28;20033;-67
2022/11/02 02:31:17;;;;;;;21.10;9.55;;;;;;;10.69;100.00;101099.41;5033142;28;20486;-67
2022/11/02 02:33:53;;;;;;;21.02;9.80;;;;;;;10.69;100.00;101094.88;5032576;28;20116;-68
2022/11/02 02:36:38;;;;;;;19.50;10.18;;;;;;;10.70;100.00;101090.38;5033408;28;20029;-67
2022/11/02 02:39:15;;;;;;;21.23;9.98;;;;;;;10.63;100.00;101089.13;5032095;28;20044;-69
2022/11/02 02:41:47;;;;;;;24.33;10.80;;;;;;;10.58;100.00;101092.13;5032169;28;20030;-66
2022/11/02 02:44:20;;;;;;;16.77;9.75;;;;;;;10.72;100.00;101088.41;5032028;28;20112;-68
2022/11/02 02:46:56;;;;;;;18.20;9.95;;;;;;;10.73;100.00;101087.44;5031940;28;20036;-68
2022/11/02 02:49:29;;;;;;;23.95;10.73;;;;;;;10.76;100.00;101095.31;5033555;28;20544;-68
2022/11/02 02:51:56;;;;;;;19.67;9.30;;;;;;;10.74;100.00;101081.09;5033690;28;20382;-66
2022/11/02 02:54:45;;;;;;;19.55;9.48;;;;;;;10.79;100.00;101085.16;5033251;28;20025;-68
2022/11/02 02:57:16;;;;;;;21.20;9.90;;;;;;;10.76;100.00;101084.53;5031385;28;20049;-66
2022/11/02 02:59:44;;;;;;;17.35;9.48;;;;;;;10.76;100.00;101084.53;5033060;28;20048;-68
2022/11/02 03:03:00;;;;;;;18.85;10.10;;;;;;;10.73;100.00;101087.44;5032217;28;20493;-68
2022/11/02 03:05:35;;;;;;;16.83;9.00;;;;;;;10.72;100.00;101081.19;5014121;28;20034;-68
2022/11/02 03:08:04;;;;;;;;;;;;;;;10.76;100.00;101089.91;5031667;28;20076;-68
2022/11/02 03:10:36;;;;;;;20.20;10.23;;;;;;;10.75;100.00;101085.50;5024069;28;19929;-68
2022/11/02 03:13:07;;;;;;;17.73;9.60;;;;;;;10.75;100.00;101080.09;5031593;28;20029;-68
2022/11/02 03:15:42;;;;;;;15.52;8.65;;;;;;;10.72;100.00;101093.78;5033266;28;20069;-67
2022/11/02 03:18:31;;;;;;;13.80;8.98;;;;;;;10.73;100.00;101090.97;5032731;28;20041;-67
2022/11/02 03:21:15;;;;;;;17.42;9.60;;;;;;;10.76;100.00;101089.91;5032856;28;20108;-69
2022/11/02 03:23:51;;;;;;;13.00;8.52;;;;;;;10.82;100.00;101089.44;5031310;28;20040;-68
2022/11/02 03:26:30;;;;;;;13.50;8.45;;;;;;;10.83;100.00;101096.53;5032431;28;20355;-68
2022/11/02 03:28:55;;;;;;;15.80;8.68;;;;;;;10.83;100.00;101093.84;5031281;28;20025;-69
2022/11/02 03:31:41;;;;;;;16.90;7.60;;;;;;;10.81;100.00;101098.50;5031166;28;20493;-68
2022/11/02 03:34:27;;;;;;;15.10;8.73;;;;;;;10.82;100.00;101094.81;5031079;28;20124;-68
2022/11/02 03:37:19;;;;;;;14.27;7.93;;;;;;;10.80;100.00;101096.78;5031058;28;20029;-68
2022/11/02 03:40:06;;;;;;;15.40;8.05;;;;;;;10.80;100.00;101091.41;5031742;28;20042;-67
2022/11/02 03:42:34;;;;;;;11.00;6.72;;;;;;;10.87;100.00;101097.16;5030667;28;20036;-66
2022/11/02 03:45:21;;;;;;;14.55;8.85;;;;;;;10.86;100.00;101096.31;5031998;28;20478;-69
2022/11/02 03:47:52;;;;;;;13.35;8.02;;;;;;;10.87;100.00;101092.63;5032345;28;20065;-68
2022/11/02 03:50:21;;;;;;;11.88;7.20;;;;;;;10.81;100.00;101091.28;5032367;28;20029;-67
2022/11/02 03:52:51;;;;;;;16.25;8.38;;;;;;;10.72;100.00;101096.47;5031158;28;20123;-68
2022/11/02 03:55:30;;;;;;;12.88;7.38;;;;;;;10.77;100.00;101102.41;5030655;28;20053;-68
2022/11/02 03:57:57;;;;;;;18.95;8.73;;;;;;;10.82;100.00;101089.44;5031049;28;20029;-69
2022/11/02 04:00:25;;;;;;;12.25;7.88;;;;;;;10.75;100.00;101093.56;5032453;28;20025;-68
2022/11/02 04:02:55;;;;;;;16.27;7.15;;;;;;;10.80;100.00;101099.47;5032096;28;20052;-67
2022/11/02 04:05:33;;;;;;;15.05;8.13;;;;;;;10.89;100.00;101095.19;5031872;28;20397;-68
2022/11/02 04:16:14;;;;;;;19.30;7.43;;;;;;;10.76;100.00;101095.31;5032383;28;20045;-67
2022/11/02 04:21:24;;;;;;;17.77;7.72;;;;;;;10.81;100.00;101098.50;5032337;28;20497;-67
2022/11/02 04:26:33;;;;;;;19.30;7.72;;;;;;;10.81;100.00;101093.13;5032068;28;20124;-69
2022/11/02 04:28:59;;;;;;;16.38;6.90;;;;;;;10.70;100.00;101104.66;5031975;28;20064;-69
2022/11/02 04:31:24;;;;;;;12.10;5.55;;;;;;;10.66;100.00;101096.94;5032045;28;20026;-68
2022/11/02 04:33:50;;;;;;;12.73;5.63;;;;;;;10.68;100.00;101097.69;5030435;28;20036;-68
2022/11/02 04:36:16;;;;;;;15.13;5.80;;;;;;;10.63;100.00;101099.88;5031623;28;20447;-68
2022/11/02 04:38:41;;;;;;;11.13;5.57;;;;;;;10.66;100.00;101099.66;5030339;28;20029;-69
2022/11/02 04:44:00;;;;;;;15.43;6.72;;;;;;;10.62;100.00;101103.53;5031726;28;20040;-67
2022/11/02 04:46:28;;;;;;;20.70;6.43;;;;;;;10.64;100.00;101101.59;5032000;28;20083;-68
2022/11/02 04:48:54;;;;;;;16.67;6.63;;;;;;;10.76;100.00;101095.31;5030339;28;20029;-69
2022/11/02 04:51:21;;;;;;;16.90;6.05;;;;;;;10.76;100.00;101096.16;5031074;28;20033;-68
2022/11/02 04:53:48;;;;;;;17.17;7.20;;;;;;;10.78;100.00;101098.72;5029906;28;20030;-68
2022/11/02 04:56:14;;;;;;;25.75;8.07;;;;;;;10.77;100.00;101097.00;5033967;28;20053;-67
2022/11/02 04:58:40;;;;;;;24.63;8.52;;;;;;;10.76;100.00;101096.16;5035347;28;20029;-68
2022/11/02 05:01:08;;;;;;;34.08;8.30;;;;;;;10.72;100.00;101100.03;5035131;28;20441;-68
2022/11/02 05:03:35;;;;;;;16.70;7.82;;;;;;;10.70;100.00;101106.50;5033740;28;20021;-66
2022/11/02 05:06:01;;;;;;;24.13;8.40;;;;;;;10.66;100.00;101110.41;5033528;28;20042;-67
2022/11/02 05:08:27;;;;;;;19.65;7.53;;;;;;;10.73;100.00;101117.03;5034736;28;20121;-69
2022/11/02 05:10:55;;;;;;;19.52;8.13;;;;;;;10.76;100.00;101111.44;5035118;28;20534;-67
2022/11/02 05:13:22;;;;;;;18.50;8.45;;;;;;;10.62;100.00;101114.28;5033458;28;20063;-67
2022/11/02 05:15:47;;;;;;;18.58;8.50;;;;;;;10.60;100.00;101121.63;5034869;28;20029;-68
2022/11/02 05:18:13;;;;;;;18.67;8.80;;;;;;;10.55;100.00;101119.25;5034804;28;20113;-67
2022/11/02 05:20:38;;;;;;;21.20;8.70;;;;;;;10.60;100.00;101116.25;5033378;28;20033;-67
2022/11/02 05:23:05;;;;;;;18.88;8.25;;;;;;;10.63;100.00;101122.25;5032806;28;20029;-68
2022/11/02 05:25:31;;;;;;;20.05;8.25;;;;;;;10.77;100.00;101115.84;5033368;28;20482;-68
2022/11/02 05:27:57;;;;;;;19.42;7.47;;;;;;;10.72;100.00;101109.94;5034913;28;20041;-67
2022/11/02 05:30:23;;;;;;;24.35;8.48;;;;;;;10.65;100.00;101109.53;5033088;28;20033;-68
2022/11/02 05:32:49;;;;;;;14.27;8.45;;;;;;;10.59;100.00;101103.78;5034396;28;20032;-68
2022/11/02 05:35:14;;;;;;;20.70;8.30;;;;;;;10.63;100.00;101102.56;5034445;28;20026;-68
2022/11/02 05:37:40;;;;;;;19.20;9.10;;;;;;;10.62;100.00;101103.53;5032841;28;20025;-71
2022/11/02 05:40:07;;;;;;;21.95;8.63;;;;;;;10.62;100.00;101103.53;5033070;28;20509;-69
2022/11/02 05:42:33;;;;;;;24.95;9.50;;;;;;;10.54;100.00;101104.97;5034474;28;20025;-69
2022/11/02 05:44:59;;;;;;;20.40;8.20;;;;;;;10.65;100.00;101112.22;5032689;28;20067;-68
2022/11/02 05:47:24;;;;;;;17.92;8.18;;;;;;;10.69;100.00;101112.84;5034385;28;20041;-68
2022/11/02 05:49:50;;;;;;;19.13;7.47;;;;;;;10.68;100.00;101119.22;5032754;28;20025;-68
2022/11/02 05:52:16;;;;;;;19.55;8.15;;;;;;;10.63;100.00;101126.78;5033740;28;20402;-69
2022/11/02 05:54:41;;;;;;;20.13;7.78;;;;;;;10.68;100.00;101119.22;5034093;28;20040;-68
2022/11/02 05:57:07;;;;;;;21.85;8.18;;;;;;;10.66;100.00;101123.84;5031978;28;20052;-68
2022/11/02 05:59:34;;;;;;;21.08;8.27;;;;;;;10.61;100.00;101117.97;5033545;28;20041;-68
2022/11/02 06:02:00;;;;;;;25.50;8.25;;;;;;;10.60;100.00;101113.56;5033747;28;20092;-68
2022/11/02 06:04:25;;;;;;;20.25;7.80;;;;;;;10.66;100.00;101116.63;5031918;28;20029;-68
2022/11/02 06:06:51;;;;;;;23.70;8.90;;;;;;;10.63;100.00;101121.41;5032885;28;20063;-68
2022/11/02 06:09:16;;;;;;;20.73;8.25;;;;;;;10.65;100.00;101124.81;5032170;28;20025;-68
2022/11/02 06:11:42;;;;;;;16.83;7.70;;;;;;;10.65;100.00;101122.13;5033692;28;20038;-68
2022/11/02 06:14:08;;;;;;;18.55;6.53;;;;;;;10.67;100.00;101122.88;5033279;28;20037;-67
2022/11/02 06:16:34;;;;;;;17.77;7.35;;;;;;;10.59;100.00;101134.22;5033282;28;20025;-68
2022/11/02 06:19:00;;;;;;;27.05;8.63;;;;;;;10.57;100.00;101132.56;5031650;28;20088;-65
2022/11/02 06:21:25;;;;;;;28.30;9.30;;;;;;;10.60;100.00;101132.38;5032308;28;20037;-69
2022/11/02 06:23:52;;;;;;;22.50;8.18;;;;;;;10.61;100.00;101134.09;5032129;28;20525;-67
2022/11/02 06:26:17;;;;;;;27.90;8.25;;;;;;;10.66;100.00;101134.59;5033213;28;20375;-69
2022/11/02 06:28:43;;;;;;;29.48;8.88;;;;;;;10.60;100.00;101121.63;5032445;28;20086;-67
2022/11/02 06:31:09;;;;;;;30.10;7.78;;;;;;;10.67;100.00;101128.25;5031229;28;20403;-68
2022/11/02 06:33:34;;;;;;;28.23;8.30;;;;;;;10.65;100.00;101131.06;5032252;28;20042;-68
2022/11/02 06:36:00;;;;;;;29.40;7.90;;;;;;;10.71;100.00;101130.59;5032659;28;20063;-67
2022/11/02 06:38:26;;;;;;;34.63;8.63;;;;;;;10.71;100.00;101135.09;5032641;28;20482;-68
2022/11/02 06:41:01;;;;;;;23.73;7.15;;;;;;;10.72;100.00;101126.91;5032627;28;20037;-68
2022/11/02 06:43:27;;;;;;;25.45;7.60;;;;;;;10.68;100.00;101121.91;5032767;28;20489;-67
2022/11/02 06:45:54;;;;;;;21.45;7.63;;;;;;;10.64;100.00;101123.09;5031020;28;20029;-67
2022/11/02 06:48:20;;;;;;;22.33;6.90;;;;;;;10.69;100.00;101134.38;5030808;28;20056;-68
2022/11/02 06:50:46;;;;;;;23.83;8.57;;;;;;;10.67;100.00;101136.31;5031182;28;20079;-69
2022/11/02 06:53:11;;;;;;;24.77;7.80;;;;;;;10.64;100.00;101132.03;5029824;28;20346;-70
2022/11/02 06:55:37;;;;;;;24.23;7.88;;;;;;;10.65;100.00;101140.94;5030365;28;20053;-68
2022/11/02 06:58:03;;;;;;;23.95;8.70;;;;;;;10.64;100.00;101139.25;5032200;28;20060;-67
2022/11/02 07:00:29;;;;;;;21.33;8.30;;;;;;;10.61;100.00;101145.72;5031883;28;20035;-68
2022/11/02 07:03:02;;;;;;;27.13;8.57;;;;;;;10.61;100.00;101137.66;5030335;28;20385;-69
2022/11/02 07:05:28;;;;;;;23.50;8.40;;;;;;;10.66;100.00;101145.34;5030008;28;20503;-68
2022/11/02 07:07:54;;;;;;;16.80;7.38;;;;;;;10.69;100.00;101142.44;5030435;28;20116;-68
2022/11/02 07:10:20;;;;;;;23.10;7.72;;;;;;;10.61;100.00;101136.78;5031859;28;20109;-69
2022/11/02 07:12:45;;;;;;;23.55;8.20;;;;;;;10.62;100.00;101133.97;5030382;28;20078;-68
2022/11/02 07:15:12;;;;;;;24.65;7.32;;;;;;;10.71;100.00;101141.34;5029671;28;20091;-68
2022/11/02 07:17:39;;;;;;;16.83;7.32;;;;;;;10.73;100.00;101127.78;5030802;28;20037;-68
2022/11/02 07:20:05;;;;;;;19.02;7.60;;;;;;;10.77;100.00;101140.06;5030897;28;20548;-68
2022/11/02 07:22:32;;;;;;;20.65;7.75;;;;;;;10.81;100.00;101125.38;5031748;28;20471;-67
2022/11/02 07:24:57;;;;;;;21.75;8.07;;;;;;;10.82;100.00;101132.47;5030963;28;20060;-69
2022/11/02 07:27:23;;;;;;;25.48;9.88;;;;;;;10.75;100.00;101131.22;5031143;28;20072;-68
2022/11/02 07:29:49;;;;;;;21.55;9.25;;;;;;;10.81;100.00;101128.94;5030098;28;20425;-68
2022/11/02 07:32:14;;;;;;;25.73;9.80;;;;;;;10.86;100.00;101133.97;5029811;28;20033;-68
2022/11/02 07:34:40;;;;;;;26.27;9.88;;;;;;;10.92;100.00;101130.81;5031668;28;20487;-69
2022/11/02 07:37:06;;;;;;;23.92;9.05;;;;;;;10.91;100.00;101129.09;5029800;28;20124;-68
2022/11/02 07:39:31;;;;;;;18.15;7.82;;;;;;;10.88;100.00;101121.25;5031209;28;20041;-69
2022/11/02 07:41:57;;;;;;;23.48;9.40;;;;;;;10.95;100.00;101124.34;5032073;28;20068;-68
2022/11/02 07:44:22;;;;;;;18.67;7.97;;;;;;;11.02;100.00;101121.06;5029759;28;20398;-69
2022/11/02 07:46:48;;;;;;;17.52;8.20;;;;;;;10.94;100.00;101115.44;5029802;28;20037;-68
2022/11/02 07:49:14;;;;;;;25.60;10.02;;;;;;;10.93;100.00;101124.47;5030112;28;20071;-69
2022/11/02 07:51:39;;;;;;;21.17;7.63;;;;;;;10.98;100.00;101126.81;5031522;28;20045;-69
2022/11/02 07:54:05;;;;;;;19.40;7.15;;;;;;;11.03;100.00;101124.59;5031225;28;20030;-67
2022/11/02 07:56:30;;;;;;;21.02;7.88;;;;;;;10.97;100.00;101125.94;5030277;28;20072;-68
2022/11/02 07:58:56;;;;;;;18.42;8.27;;;;;;;11.04;100.00;101127.19;5030118;28;20398;-71
2022/11/02 08:01:22;;;;;;;23.17;11.05;;;;;;;11.20;100.00;101131.41;5031739;28;20041;-68
2022/11/02 08:03:48;;;;;;;24.95;10.55;;;;;;;11.09;100.00;101130.41;5030225;28;20033;-68
2022/11/02 08:06:14;;;;;;;22.23;10.80;;;;;;;11.21;100.00;101133.97;5031702;28;20101;-70
2022/11/02 08:08:39;;;;;;;25.85;10.68;;;;;;;11.20;100.00;101134.09;5030004;28;20375;-70
2022/11/02 08:11:07;;;;;;;22.20;9.35;;;;;;;11.07;100.00;101131.47;5031081;28;20044;-68
2022/11/02 08:13:34;;;;;;;21.83;8.32;;;;;;;11.01;100.00;101131.94;5031637;28;20029;-68
2022/11/02 08:16:00;;;;;;;16.15;7.20;;;;;;;11.01;100.00;101135.50;5030504;28;20045;-68
2022/11/02 08:18:27;;;;;;;18.95;6.80;;;;;;;10.91;100.00;101131.78;5029680;28;20037;-67
2022/11/02 08:20:57;;;;;;;19.00;7.97;;;;;;;10.91;100.00;101136.28;5031111;28;20044;-68
2022/11/02 08:23:24;;;;;;;21.00;7.53;;;;;;;10.99;100.00;101140.13;5029775;28;20034;-68
2022/11/02 08:25:51;;;;;;;16.45;7.53;;;;;;;11.04;100.00;101132.56;5029690;28;20045;-69
2022/11/02 08:28:22;;;;;;;19.92;7.55;;;;;;;11.12;100.00;101124.78;5031233;28;20065;-68
2022/11/02 08:30:48;;;;;;;13.35;6.93;;;;;;;11.11;100.00;101123.06;5033580;28;20530;-70
2022/11/02 08:33:16;;;;;;;17.35;8.90;;;;;;;11.05;100.00;101118.13;5033532;28;20068;-68
2022/11/02 08:35:43;;;;;;;15.55;7.20;;;;;;;11.02;100.00;101121.06;5035272;28;20018;-68
2022/11/02 08:38:10;;;;;;;22.15;8.45;;;;;;;11.05;100.00;101117.28;5035091;28;20033;-67
2022/11/02 08:40:36;;;;;;;20.85;10.70;;;;;;;11.09;100.00;101125.03;5034956;28;20403;-68
2022/11/02 08:43:05;;;;;;;18.13;10.05;;;;;;;11.12;100.00;101116.72;5034647;28;20394;-70
2022/11/02 08:45:31;;;;;;;17.65;9.00;;;;;;;11.15;100.00;101119.16;5035454;28;20037;-69
2022/11/02 08:47:57;;;;;;;18.48;10.85;;;;;;;11.15;100.00;101129.91;5034034;28;20034;-68
2022/11/02 08:50:24;;;;;;;17.20;8.40;;;;;;;11.21;100.00;101122.34;5034177;28;20041;-67
2022/11/02 08:52:50;;;;;;;13.95;7.95;;;;;;;11.35;100.00;101119.44;5035006;28;20021;-67
2022/11/02 08:55:15;;;;;;;16.73;7.93;;;;;;;11.35;99.75;101119.44;5034899;28;20785;-68
2022/11/02 08:57:46;;;;;;;16.38;6.80;;;;;;;11.32;99.79;101108.91;5034859;28;20041;-69
2022/11/02 09:00:12;;;;;;;18.75;7.60;;;;;;;11.36;99.33;101111.25;5035431;28;20417;-68
2022/11/02 09:02:38;;;;;;;14.73;7.13;;;;;;;11.39;98.82;101110.16;5034995;28;20040;-70
2022/11/02 09:05:04;;;;;;;12.85;6.18;;;;;;;11.35;98.39;101109.53;5036188;28;20119;-69
2022/11/02 09:07:30;;;;;;;11.77;5.90;;;;;;;11.40;98.24;101109.16;5033749;28;20076;-68
2022/11/02 09:09:55;;;;;;;12.05;5.15;;;;;;;11.39;98.53;101104.75;5034773;28;20040;-69
2022/11/02 09:12:21;;;;;;;10.65;5.15;;;;;;;11.35;98.22;101101.47;5036775;28;20025;-68
2022/11/02 09:14:47;;;;;;;9.73;5.75;;;;;;;11.39;98.35;101099.38;5034881;28;20029;-69
2022/11/02 09:17:12;;;;;;;11.00;5.72;;;;;;;11.39;98.44;101102.06;5034294;28;20445;-68
2022/11/02 09:19:38;;;;;;;13.43;6.25;;;;;;;11.43;98.25;101100.88;5033364;28;20053;-69
2022/11/02 09:22:04;;;;;;;9.52;5.53;;;;;;;11.50;97.71;101096.72;5033241;28;20390;-68
2022/11/02 09:24:29;;;;;;;8.25;5.40;;;;;;;11.51;97.61;101097.56;5034139;28;20048;-68
2022/11/02 09:26:55;;;;;;;15.52;5.75;;;;;;;11.56;97.40;101101.59;5034296;28;20109;-68
2022/11/02 09:29:20;;;;;;;9.80;4.28;;;;;;;11.51;97.25;101105.66;5034279;28;20458;-67
2022/11/02 09:31:47;;;;;;;9.02;4.60;;;;;;;11.51;97.05;101097.56;5033026;28;20116;-68
2022/11/02 09:34:14;;;;;;;9.07;4.57;;;;;;;11.57;97.22;101100.63;5034475;28;20128;-68
2022/11/02 09:36:40;;;;;;;13.20;5.03;;;;;;;11.63;97.08;101089.38;5032385;28;20316;-67
2022/11/02 09:39:06;;;;;;;12.57;5.38;;;;;;;11.63;96.86;101094.78;5032523;28;20033;-68
2022/11/02 09:41:46;;;;;;;10.52;6.00;;;;;;;11.65;96.65;101095.50;5032016;28;20435;-69
2022/11/02 09:44:20;;;;;;;10.07;5.60;;;;;;;11.64;96.03;101088.41;5033844;28;20102;-68
2022/11/02 09:46:47;;;;;;;14.43;6.15;;;;;;;11.74;96.66;101091.22;5032506;28;20033;-67
2022/11/02 09:49:22;;;;;;;10.05;5.05;;;;;;;11.71;95.83;101094.16;5033483;28;20478;-68
2022/11/02 09:51:53;;;;;;;13.93;5.97;;;;;;;11.67;96.04;101104.31;5032022;28;20083;-68
2022/11/02 09:54:25;;;;;;;13.25;5.68;;;;;;;11.69;96.15;101088.88;5034029;28;20072;-69
2022/11/02 09:56:53;;;;;;;10.90;4.82;;;;;;;11.70;96.03;101098.69;5033556;28;20077;-69
2022/11/02 09:59:23;;;;;;;9.90;4.57;;;;;;;11.65;96.26;101090.13;5033175;28;20025;-70
2022/11/02 10:02:22;;;;;;;9.68;5.30;;;;;;;11.64;96.60;101093.78;5033737;28;20052;-69
2022/11/02 10:05:28;;;;;;;8.65;5.43;;;;;;;11.67;96.42;101088.16;5032156;28;20029;-68
2022/11/02 10:08:45;;;;;;;12.23;6.68;;;;;;;11.71;95.68;101078.84;5032731;28;20037;-67
2022/11/02 10:11:31;;;;;;;6.97;4.35;;;;;;;11.80;95.22;101082.69;5030535;28;20052;-69
2022/11/02 10:14:12;;;;;;;10.57;5.10;;;;;;;11.93;95.32;101082.56;5032225;28;20350;-69
2022/11/02 10:16:57;;;;;;;9.48;4.82;;;;;;;11.90;94.63;101070.16;5032332;28;20041;-65
2022/11/02 10:19:24;;;;;;;13.75;6.55;;;;;;;11.91;94.67;101073.72;5032127;28;20037;-69
2022/11/02 10:21:56;;;;;;;10.52;5.32;;;;;;;11.96;93.82;101082.31;5033031;28;20038;-68
2022/11/02 10:24:41;;;;;;;10.95;5.70;;;;;;;12.03;94.00;101064.66;5033078;28;20478;-68
2022/11/02 10:27:28;;;;;;;9.80;5.15;;;;;;;12.02;94.40;101071.03;5033180;28;20364;-69
2022/11/02 10:30:12;;;;;;;13.50;5.90;;;;;;;12.05;93.78;101070.78;5032480;28;20037;-68
2022/11/02 10:32:41;;;;;;;13.65;7.35;;;;;;;12.06;94.15;101072.47;5032907;28;20174;-69
2022/11/02 10:35:21;;;;;;;11.98;5.25;;;;;;;12.08;93.29;101070.50;5031010;28;20054;-68
2022/11/02 10:38:09;;;;;;;11.70;6.90;;;;;;;12.16;93.56;101072.59;5031090;28;20037;-67
2022/11/02 10:41:04;;;;;;;9.43;5.20;;;;;;;12.16;92.63;101068.06;5027663;28;20041;-67
2022/11/02 10:43:53;;;;;;;11.27;5.82;;;;;;;12.15;93.03;101076.28;5033348;28;20025;-70
2022/11/02 10:46:53;;;;;;;14.07;5.85;;;;;;;12.15;92.31;101077.13;5032962;28;20108;-69
2022/11/02 10:49:22;;;;;;;13.70;5.70;;;;;;;12.25;92.65;101078.06;5030857;28;20053;-67
2022/11/02 10:51:49;;;;;;;15.85;6.43;;;;;;;12.18;92.83;101063.41;5030781;28;20120;-68
2022/11/02 10:54:15;;;;;;;11.93;5.35;;;;;;;12.23;92.43;101069.25;5032582;28;20107;-69
2022/11/02 10:56:42;;;;;;;14.05;5.65;;;;;;;12.20;92.38;101068.66;5032183;28;20069;-68
2022/11/02 10:59:17;;;;;;;11.93;4.30;;;;;;;12.31;91.80;101071.34;5030429;28;20027;-69
2022/11/02 11:02:10;;;;;;;9.02;4.47;;;;;;;12.23;91.78;101068.41;5032500;28;20494;-68
2022/11/02 11:04:36;;;;;;;11.98;5.28;;;;;;;12.28;91.90;101061.69;5031676;28;20080;-69
2022/11/02 11:07:25;;;;;;;11.48;5.07;;;;;;;12.31;91.50;101061.41;5031899;28;20057;-69
2022/11/02 11:09:54;;;;;;;11.20;4.63;;;;;;;12.30;91.82;101062.41;5030335;28;20507;-68
2022/11/02 11:12:31;;;;;;;16.35;6.20;;;;;;;12.31;92.35;101065.97;5030277;28;20033;-68
2022/11/02 11:15:01;;;;;;;17.05;5.82;;;;;;;12.30;91.96;101059.72;5031381;28;20029;-70
2022/11/02 11:17:36;;;;;;;11.20;4.75;;;;;;;12.40;91.62;101064.31;5030349;28;20033;-68
2022/11/02 11:20:05;;;;;;;14.32;5.38;;;;;;;12.31;91.86;101055.16;5031605;28;20576;-68
2022/11/02 11:22:40;;;;;;;11.43;5.30;;;;;;;12.36;91.86;101052.94;5031656;28;20052;-68
2022/11/02 11:25:11;;;;;;;12.85;4.90;;;;;;;12.30;91.79;101051.63;5030231;28;20037;-68
2022/11/02 11:27:49;;;;;;;15.13;4.30;;;;;;;12.26;91.63;101058.25;5029803;28;20458;-67
2022/11/02 11:30:34;;;;;;;13.65;4.88;;;;;;;12.24;92.08;101056.66;5030381;28;20427;-69
2022/11/02 11:33:03;;;;;;;11.40;3.88;;;;;;;12.15;92.16;101041.25;5030271;28;20085;-66
2022/11/02 11:35:35;;;;;;;12.88;4.05;;;;;;;12.10;92.46;101051.56;5031917;28;20087;-69
2022/11/02 11:38:18;;;;;;;12.10;4.68;;;;;;;12.12;92.63;101050.44;5030299;28;20517;-68
2022/11/02 11:40:47;;;;;;;11.88;4.28;;;;;;;12.00;92.65;101046.06;5031674;28;20033;-69